Time;durP1;ratioP1;P1;durP2;ratioP2;P2;SDS_P1;SDS_P2;PMS_P1;PMS_P2;Temp;Humidity;BMP_temperature;BMP_pressure;BME280_temperature;BME280_humidity;BME280_pressure;Samples;Min_cycle;Max_cycle;Signal;HPM_P1;HPM_P2
2023/11/02 00:01:24;;;;;;;4.13;1.50;;;;;;;;;;4971450;28;20176;-65
2023/11/02 00:03:51;;;;;;;7.77;1.80;;;;;;;;;;4971916;28;20226;-65
2023/11/02 00:06:36;;;;;;;4.77;2.00;;;;;;;;;;4971105;28;20703;-65
2023/11/02 00:09:05;;;;;;;3.67;1.27;;;;;;;;;;4968974;28;20188;-66
2023/11/02 00:11:50;;;;;;;2.70;1.03;;;;;;;;;;4960557;28;20268;-66
2023/11/02 00:14:19;;;;;;;4.00;1.70;;;;;;;;;;4969739;28;20196;-66
2023/11/02 00:16:45;;;;;;;3.87;1.00;;;;;;;;;;4971549;28;20175;-66
2023/11/02 00:19:14;;;;;;;2.27;1.13;;;;;;;;;;4971502;28;20208;-66
2023/11/02 00:21:39;;;;;;;4.90;1.03;;;;;;;;;;4964823;28;20182;-66
2023/11/02 00:24:05;;;;;;;4.47;1.30;;;;;;;;;;4971651;28;20181;-66
2023/11/02 00:26:30;;;;;;;4.20;1.27;;;;;;;;;;4970718;28;20820;-67
2023/11/02 00:28:55;;;;;;;2.40;1.30;;;;;;;;;;4971356;28;20196;-66
2023/11/02 00:31:20;;;;;;;2.17;0.97;;;;;;;;;;4965149;28;20633;-66
2023/11/02 00:33:46;;;;;;;4.13;1.00;;;;;;;;;;4972036;28;20180;-67
2023/11/02 00:36:11;;;;;;;2.10;1.03;;;;;;;;;;4971405;28;20204;-67
2023/11/02 00:38:36;;;;;;;2.45;1.42;;;;;;;;;;4969932;28;20207;-66
2023/11/02 00:41:02;;;;;;;2.47;0.93;;;;;;;;;;4968290;28;20176;-66
2023/11/02 00:43:28;;;;;;;2.37;0.80;;;;;;;;;;4971133;28;20195;-67
2023/11/02 00:45:54;;;;;;;4.43;1.33;;;;;;;;;;4972111;28;20199;-66
2023/11/02 00:48:25;;;;;;;3.05;1.20;;;;;;;;;;4962821;28;20188;-66
2023/11/02 00:50:54;;;;;;;3.40;1.27;;;;;;;;;;4970308;28;20648;-66
2023/11/02 00:53:19;;;;;;;2.38;0.82;;;;;;;;;;4970012;28;20172;-67
2023/11/02 00:55:44;;;;;;;5.25;1.13;;;;;;;;;;4970718;28;20691;-66
2023/11/02 00:58:11;;;;;;;6.88;1.88;;;;;;;;;;4970029;28;20683;-66
2023/11/02 01:00:57;;;;;;;1.80;0.90;;;;;;;;;;4971244;28;20208;-66
2023/11/02 01:03:22;;;;;;;4.97;1.57;;;;;;;;;;4978037;28;20195;-66
2023/11/02 01:05:48;;;;;;;2.22;0.90;;;;;;;;;;4965034;28;20201;-66
2023/11/02 01:08:14;;;;;;;2.77;0.90;;;;;;;;;;4962508;28;20683;-66
2023/11/02 01:10:40;;;;;;;2.72;1.10;;;;;;;;;;4971206;28;20188;-66
2023/11/02 01:13:10;;;;;;;2.88;1.17;;;;;;;;;;4971742;28;20682;-66
2023/11/02 01:15:51;;;;;;;2.70;1.10;;;;;;;;;;4971192;28;20224;-67
2023/11/02 01:18:16;;;;;;;4.65;0.90;;;;;;;;;;4971085;28;20188;-66
2023/11/02 01:20:47;;;;;;;2.40;1.27;;;;;;;;;;4971143;28;20235;-66
2023/11/02 01:23:14;;;;;;;3.17;0.90;;;;;;;;;;4965871;28;20318;-66
2023/11/02 01:25:41;;;;;;;5.60;1.02;;;;;;;;;;4965558;28;20207;-66
2023/11/02 01:28:07;;;;;;;1.63;0.95;;;;;;;;;;5021219;23;20617;-85
2023/11/02 01:30:38;;;;;;;2.53;0.85;;;;;;;;;;5001176;28;20171;-83
2023/11/02 01:33:22;;;;;;;3.55;1.13;;;;;;;;;;4988608;28;20667;-84
2023/11/02 01:35:48;;;;;;;6.35;1.15;;;;;;;;;;4988991;28;20246;-84
2023/11/02 01:38:16;;;;;;;2.80;1.45;;;;;;;;;;4986084;28;20290;-85
2023/11/02 01:40:55;;;;;;;2.17;0.83;;;;;;;;;;4992565;28;20192;-84
2023/11/02 01:47:24;;;;;;;2.10;1.00;;;;;;;;;;4984864;28;20180;-88
2023/11/02 01:53:24;;;;;;;5.63;1.45;;;;;;;;;;4999444;28;20210;-87
2023/11/02 01:56:18;;;;;;;;;;;;;;;;;;;;;
2023/11/02 01:59:02;;;;;;;3.65;0.98;;;;;;;;;;4997777;28;20790;-87
2023/11/02 02:05:22;;;;;;;4.28;1.08;;;;;;;;;;4974338;28;20189;-85
2023/11/02 02:07:56;;;;;;;3.40;0.73;;;;;;;;;;5001728;28;20215;-84
2023/11/02 02:11:02;;;;;;;7.28;1.60;;;;;;;;;;5001570;28;20192;-85
2023/11/02 02:13:59;;;;;;;3.13;0.75;;;;;;;;;;5004171;28;20199;-83
2023/11/02 02:19:38;;;;;;;2.80;0.80;;;;;;;;;;5004651;28;20246;-86
2023/11/02 02:22:13;;;;;;;4.65;1.00;;;;;;;;;;4995482;28;20214;-87
2023/11/02 02:24:44;;;;;;;6.80;0.90;;;;;;;;;;4992616;28;20171;-86
2023/11/02 02:27:26;;;;;;;4.63;1.08;;;;;;;;;;4990771;28;20227;-86
2023/11/02 02:30:11;;;;;;;2.25;0.88;;;;;;;;;;4987929;28;20215;-87
2023/11/02 02:32:55;;;;;;;4.25;0.90;;;;;;;;;;5004641;28;20267;-85
2023/11/02 02:45:09;;;;;;;7.57;0.98;;;;;;;;;;4965114;28;20243;-85
2023/11/02 02:50:34;;;;;;;5.70;1.10;;;;;;;;;;4977412;28;20177;-84
2023/11/02 02:53:11;;;;;;;3.60;1.17;;;;;;;;;;4989140;28;20272;-83
2023/11/02 02:56:05;;;;;;;2.78;1.10;;;;;;;;;;4987589;28;20554;-82
2023/11/02 02:58:37;;;;;;;5.63;1.05;;;;;;;;;;4995262;28;20226;-85
2023/11/02 03:01:11;;;;;;;1.15;0.80;;;;;;;;;;4997967;28;20184;-87
2023/11/02 03:03:44;;;;;;;2.47;0.80;;;;;;;;;;4998246;28;20172;-84
2023/11/02 03:06:28;;;;;;;4.30;0.73;;;;;;;;;;5002715;28;20195;-83
2023/11/02 03:08:56;;;;;;;2.17;1.00;;;;;;;;;;5007408;28;20253;-84
2023/11/02 03:11:27;;;;;;;2.92;0.95;;;;;;;;;;5003472;28;20184;-84
2023/11/02 03:13:56;;;;;;;2.80;0.60;;;;;;;;;;5001333;28;20187;-85
2023/11/02 03:16:34;;;;;;;6.53;1.40;;;;;;;;;;5000960;28;20213;-84
2023/11/02 03:19:06;;;;;;;1.73;0.80;;;;;;;;;;5001151;28;20567;-84
2023/11/02 03:21:31;;;;;;;3.50;1.20;;;;;;;;;;5000874;28;20251;-85
2023/11/02 03:24:23;;;;;;;4.07;0.80;;;;;;;;;;5010532;28;20218;-86
2023/11/02 03:26:53;;;;;;;4.20;1.10;;;;;;;;;;4994066;28;20239;-85
2023/11/02 03:29:29;;;;;;;2.60;1.10;;;;;;;;;;4996184;28;20195;-85
2023/11/02 03:32:00;;;;;;;2.35;0.80;;;;;;;;;;5000171;28;20175;-84
2023/11/02 03:34:37;;;;;;;3.17;0.80;;;;;;;;;;4990439;28;20183;-85
2023/11/02 03:37:02;;;;;;;0.93;0.70;;;;;;;;;;4993286;28;20215;-84
2023/11/02 03:39:52;;;;;;;4.38;0.82;;;;;;;;;;5009907;28;20215;-83
2023/11/02 03:42:36;;;;;;;6.03;1.63;;;;;;;;;;4995282;28;20171;-85
2023/11/02 03:45:22;;;;;;;10.48;1.60;;;;;;;;;;4994226;28;20175;-84
2023/11/02 03:47:53;;;;;;;7.57;0.77;;;;;;;;;;4992952;28;20226;-83
2023/11/02 03:50:35;;;;;;;2.13;0.60;;;;;;;;;;4993378;28;20187;-84
2023/11/02 03:53:11;;;;;;;3.42;1.05;;;;;;;;;;4994774;28;20172;-85
2023/11/02 03:55:53;;;;;;;4.45;1.10;;;;;;;;;;4997398;28;20174;-83
2023/11/02 03:58:30;;;;;;;2.58;0.70;;;;;;;;;;4991311;28;20210;-83
2023/11/02 04:01:02;;;;;;;4.28;0.90;;;;;;;;;;4994919;28;20191;-83
2023/11/02 04:03:30;;;;;;;3.00;0.88;;;;;;;;;;4991485;28;20168;-83
2023/11/02 04:06:06;;;;;;;4.43;0.93;;;;;;;;;;4994825;28;20176;-82
2023/11/02 04:08:40;;;;;;;4.07;0.85;;;;;;;;;;4990759;28;20199;-84
2023/11/02 04:11:40;;;;;;;;;;;;;;;;;;;;;
2023/11/02 04:14:12;;;;;;;1.77;0.82;;;;;;;;;;4994046;28;20171;-82
2023/11/02 04:16:47;;;;;;;3.72;2.38;;;;;;;;;;4990453;28;20183;-83
2023/11/02 04:19:19;;;;;;;2.63;0.60;;;;;;;;;;4992975;28;20211;-86
2023/11/02 04:21:56;;;;;;;5.30;0.77;;;;;;;;;;4995948;28;20530;-85
2023/11/02 04:24:28;;;;;;;1.70;0.52;;;;;;;;;;5004728;28;20179;-88
2023/11/02 04:36:24;;;;;;;5.93;1.30;;;;;;;;;;5014837;28;20183;-87
2023/11/02 04:38:52;;;;;;;1.85;0.82;;;;;;;;;;5022599;23;20230;-65
2023/11/02 04:41:17;;;;;;;2.63;1.00;;;;;;;;;;5010854;28;20183;-66
2023/11/02 04:43:44;;;;;;;3.33;0.50;;;;;;;;;;5008903;28;20183;-66
2023/11/02 04:46:09;;;;;;;3.92;1.27;;;;;;;;;;5008751;28;20254;-65
2023/11/02 04:48:35;;;;;;;4.03;0.63;;;;;;;;;;4990292;28;20270;-65
2023/11/02 04:51:00;;;;;;;4.80;0.80;;;;;;;;;;4987575;28;20202;-66
2023/11/02 04:53:25;;;;;;;1.30;1.05;;;;;;;;;;4993991;28;20815;-66
2023/11/02 04:55:50;;;;;;;2.33;0.80;;;;;;;;;;4987150;28;20197;-65
2023/11/02 04:58:16;;;;;;;3.50;0.73;;;;;;;;;;4989715;28;20288;-65
2023/11/02 05:00:41;;;;;;;1.95;0.65;;;;;;;;;;4990000;28;20215;-67
2023/11/02 05:03:06;;;;;;;1.30;0.85;;;;;;;;;;4991641;28;20211;-66
2023/11/02 05:05:32;;;;;;;3.17;0.90;;;;;;;;;;4990420;28;20648;-66
2023/11/02 05:07:57;;;;;;;5.65;1.08;;;;;;;;;;4987043;28;20668;-67
2023/11/02 05:10:22;;;;;;;3.08;0.93;;;;;;;;;;4995165;28;20463;-67
2023/11/02 05:12:47;;;;;;;4.10;0.90;;;;;;;;;;4989871;28;20196;-66
2023/11/02 05:15:13;;;;;;;5.50;1.02;;;;;;;;;;4987490;28;20566;-66
2023/11/02 05:17:38;;;;;;;6.65;1.05;;;;;;;;;;4995963;28;20199;-66
2023/11/02 05:20:03;;;;;;;6.00;0.77;;;;;;;;;;4992768;28;20199;-66
2023/11/02 05:22:28;;;;;;;2.03;0.90;;;;;;;;;;4993823;28;20649;-65
2023/11/02 05:24:54;;;;;;;2.30;0.65;;;;;;;;;;4997754;28;20667;-65
2023/11/02 05:27:19;;;;;;;4.88;1.25;;;;;;;;;;4997227;28;20200;-65
2023/11/02 05:29:44;;;;;;;3.47;1.45;;;;;;;;;;4986727;28;20187;-64
2023/11/02 05:32:09;;;;;;;1.35;0.68;;;;;;;;;;4980162;28;20626;-64
2023/11/02 05:34:35;;;;;;;3.28;1.15;;;;;;;;;;4964215;28;20188;-64
2023/11/02 05:37:00;;;;;;;2.13;0.73;;;;;;;;;;4963678;28;20540;-64
2023/11/02 05:39:25;;;;;;;2.00;0.63;;;;;;;;;;4963017;28;20596;-65
2023/11/02 05:41:50;;;;;;;2.93;0.80;;;;;;;;;;4964269;28;20407;-66
2023/11/02 05:44:15;;;;;;;1.17;0.80;;;;;;;;;;4965766;28;20175;-65
2023/11/02 05:46:41;;;;;;;1.60;0.60;;;;;;;;;;4964868;28;20200;-65
2023/11/02 05:49:07;;;;;;;14.80;0.95;;;;;;;;;;4970114;28;20183;-65
2023/11/02 05:51:32;;;;;;;2.92;0.98;;;;;;;;;;4963021;28;20234;-65
2023/11/02 05:53:57;;;;;;;4.57;0.90;;;;;;;;;;4962233;28;20187;-65
2023/11/02 05:56:22;;;;;;;5.20;0.77;;;;;;;;;;4963581;28;20939;-64
2023/11/02 05:58:52;;;;;;;3.87;1.07;;;;;;;;;;4962570;28;20290;-65
2023/11/02 06:01:17;;;;;;;2.40;0.80;;;;;;;;;;4964804;28;20222;-65
2023/11/02 06:03:43;;;;;;;3.03;0.90;;;;;;;;;;4963458;28;20663;-65
2023/11/02 06:06:08;;;;;;;1.70;0.80;;;;;;;;;;4967682;28;20911;-65
2023/11/02 06:08:34;;;;;;;7.53;2.13;;;;;;;;;;4963265;28;21148;-65
2023/11/02 06:10:59;;;;;;;2.70;0.60;;;;;;;;;;4966795;28;20187;-65
2023/11/02 06:13:24;;;;;;;2.87;0.73;;;;;;;;;;4967654;28;20670;-67
2023/11/02 06:15:49;;;;;;;1.53;0.93;;;;;;;;;;4968423;28;20183;-66
2023/11/02 06:18:14;;;;;;;2.30;0.60;;;;;;;;;;4983096;28;20213;-65
2023/11/02 06:20:41;;;;;;;3.20;0.85;;;;;;;;;;4966867;28;20747;-66
2023/11/02 06:23:06;;;;;;;4.83;0.93;;;;;;;;;;4968577;28;20175;-66
2023/11/02 06:25:31;;;;;;;2.07;0.77;;;;;;;;;;4964802;28;20191;-65
2023/11/02 06:27:57;;;;;;;1.53;0.67;;;;;;;;;;4964621;28;20294;-66
2023/11/02 06:30:22;;;;;;;1.17;0.73;;;;;;;;;;4968235;28;20183;-65
2023/11/02 06:32:47;;;;;;;1.67;0.73;;;;;;;;;;4969547;28;20196;-65
2023/11/02 06:35:14;;;;;;;7.43;0.77;;;;;;;;;;4966645;28;20560;-66
2023/11/02 06:37:58;;;;;;;8.30;0.73;;;;;;;;;;4967370;28;20215;-65
2023/11/02 06:40:24;;;;;;;3.90;0.80;;;;;;;;;;4965018;28;20683;-65
2023/11/02 06:42:50;;;;;;;4.30;0.80;;;;;;;;;;4967783;28;20210;-65
2023/11/02 06:45:18;;;;;;;1.23;0.70;;;;;;;;;;4961937;28;20288;-65
2023/11/02 06:47:43;;;;;;;3.50;0.70;;;;;;;;;;4962744;28;20202;-65
2023/11/02 06:50:08;;;;;;;1.23;0.77;;;;;;;;;;4972686;28;20183;-67
2023/11/02 06:52:34;;;;;;;1.00;0.60;;;;;;;;;;4974855;28;20651;-66
2023/11/02 06:54:59;;;;;;;1.63;1.00;;;;;;;;;;4964705;28;20265;-65
2023/11/02 06:57:24;;;;;;;1.30;0.95;;;;;;;;;;4976481;28;20207;-65
2023/11/02 06:59:49;;;;;;;2.33;0.68;;;;;;;;;;4990518;28;20210;-66
2023/11/02 07:02:16;;;;;;;1.67;0.70;;;;;;;;;;4983279;28;20298;-66
2023/11/02 07:04:41;;;;;;;1.90;0.80;;;;;;;;;;4985212;28;20184;-65
2023/11/02 07:07:06;;;;;;;1.13;0.50;;;;;;;;;;4993525;28;20617;-65
2023/11/02 07:09:31;;;;;;;2.83;1.00;;;;;;;;;;4993775;28;20184;-65
2023/11/02 07:11:56;;;;;;;2.58;0.60;;;;;;;;;;4986919;28;20194;-65
2023/11/02 07:14:22;;;;;;;1.92;0.60;;;;;;;;;;4994368;28;20191;-65
2023/11/02 07:16:47;;;;;;;2.63;0.70;;;;;;;;;;4997273;28;20207;-65
2023/11/02 07:19:13;;;;;;;1.10;0.60;;;;;;;;;;4984126;28;20697;-65
2023/11/02 07:21:38;;;;;;;1.92;0.47;;;;;;;;;;4986294;28;20287;-66
2023/11/02 07:24:03;;;;;;;3.30;0.80;;;;;;;;;;4985385;28;20183;-65
2023/11/02 07:26:28;;;;;;;0.75;0.50;;;;;;;;;;4987939;28;20218;-65
2023/11/02 07:28:54;;;;;;;0.85;0.55;;;;;;;;;;4965198;28;20266;-65
2023/11/02 07:31:19;;;;;;;1.58;0.45;;;;;;;;;;4963272;28;20180;-67
2023/11/02 07:33:44;;;;;;;1.00;0.55;;;;;;;;;;4965067;28;20183;-67
2023/11/02 07:36:13;;;;;;;0.65;0.50;;;;;;;;;;4963136;28;20556;-65
2023/11/02 07:38:39;;;;;;;0.68;0.40;;;;;;;;;;4961216;28;20901;-65
2023/11/02 07:41:06;;;;;;;2.55;0.68;;;;;;;;;;4967389;28;20726;-65
2023/11/02 07:43:31;;;;;;;0.65;0.50;;;;;;;;;;4991028;28;20233;-65
2023/11/02 07:45:56;;;;;;;1.08;0.47;;;;;;;;;;4993546;28;20216;-65
2023/11/02 07:48:21;;;;;;;0.98;0.40;;;;;;;;;;4996757;28;20195;-64
2023/11/02 07:50:46;;;;;;;3.25;0.82;;;;;;;;;;4989919;28;20207;-65
2023/11/02 07:53:12;;;;;;;1.95;0.65;;;;;;;;;;4993269;28;20195;-65
2023/11/02 07:55:37;;;;;;;1.65;0.60;;;;;;;;;;4979268;28;20287;-66
2023/11/02 07:58:02;;;;;;;1.20;0.60;;;;;;;;;;4967418;28;20875;-66
2023/11/02 08:00:28;;;;;;;1.15;0.60;;;;;;;;;;4966792;28;20632;-66
2023/11/02 08:02:54;;;;;;;2.53;0.90;;;;;;;;;;4967712;28;20566;-66
2023/11/02 08:05:19;;;;;;;2.17;0.60;;;;;;;;;;4973631;28;20178;-66
2023/11/02 08:07:44;;;;;;;1.52;0.70;;;;;;;;;;4971444;28;20206;-67
2023/11/02 08:10:09;;;;;;;1.60;0.70;;;;;;;;;;4967661;28;20198;-67
2023/11/02 08:12:35;;;;;;;0.77;0.50;;;;;;;;;;4966981;28;20211;-68
2023/11/02 08:15:00;;;;;;;0.77;0.55;;;;;;;;;;4965625;28;20575;-66
2023/11/02 08:17:27;;;;;;;2.08;0.40;;;;;;;;;;4968030;28;20282;-67
2023/11/02 08:19:53;;;;;;;1.60;0.70;;;;;;;;;;4969524;28;20199;-67
2023/11/02 08:22:18;;;;;;;1.98;0.50;;;;;;;;;;4966274;28;20678;-67
2023/11/02 08:24:43;;;;;;;2.55;0.88;;;;;;;;;;4962119;28;20271;-67
2023/11/02 08:27:08;;;;;;;4.35;0.70;;;;;;;;;;4965339;28;20200;-67
2023/11/02 08:29:34;;;;;;;1.90;0.90;;;;;;;;;;4964659;28;20187;-66
2023/11/02 08:31:59;;;;;;;2.25;0.57;;;;;;;;;;4967023;28;20274;-66
2023/11/02 08:34:24;;;;;;;2.10;1.05;;;;;;;;;;4966620;28;20191;-66
2023/11/02 08:36:49;;;;;;;2.60;0.75;;;;;;;;;;4964117;28;20258;-67
2023/11/02 08:39:14;;;;;;;1.30;0.70;;;;;;;;;;4971236;28;20857;-67
2023/11/02 08:41:40;;;;;;;3.20;1.13;;;;;;;;;;4965952;28;20868;-67
2023/11/02 08:44:06;;;;;;;4.95;1.10;;;;;;;;;;4967701;28;20183;-67
2023/11/02 08:46:32;;;;;;;2.53;0.70;;;;;;;;;;4964849;28;20359;-66
2023/11/02 08:48:57;;;;;;;6.20;1.08;;;;;;;;;;4971014;28;20179;-67
2023/11/02 08:51:23;;;;;;;5.43;1.10;;;;;;;;;;4973656;28;20192;-66
2023/11/02 08:53:49;;;;;;;1.80;0.60;;;;;;;;;;4962054;28;20176;-65
2023/11/02 08:56:14;;;;;;;3.30;0.88;;;;;;;;;;4969565;28;20212;-66
2023/11/02 08:58:43;;;;;;;8.98;1.70;;;;;;;;;;4993319;28;20567;-66
2023/11/02 09:01:10;;;;;;;2.22;0.82;;;;;;;;;;4994532;28;20594;-66
2023/11/02 09:03:36;;;;;;;2.08;0.70;;;;;;;;;;4987872;28;20176;-67
2023/11/02 09:06:02;;;;;;;7.03;1.10;;;;;;;;;;4998984;28;20189;-67
2023/11/02 09:08:28;;;;;;;2.20;1.38;;;;;;;;;;4994030;28;20556;-67
2023/11/02 09:10:53;;;;;;;3.03;0.80;;;;;;;;;;4995444;28;20824;-67
2023/11/02 09:13:18;;;;;;;6.22;1.08;;;;;;;;;;4986675;28;20190;-67
2023/11/02 09:15:43;;;;;;;4.22;0.90;;;;;;;;;;4992980;28;20183;-67
2023/11/02 09:18:09;;;;;;;2.08;0.70;;;;;;;;;;4995339;28;20864;-68
2023/11/02 09:20:34;;;;;;;5.40;1.00;;;;;;;;;;4996624;28;20691;-67
2023/11/02 09:22:59;;;;;;;4.78;1.00;;;;;;;;;;4999862;28;20258;-66
2023/11/02 09:25:24;;;;;;;4.82;1.05;;;;;;;;;;4997533;28;20665;-66
2023/11/02 09:27:51;;;;;;;3.85;0.90;;;;;;;;;;4994239;28;20210;-67
2023/11/02 09:30:17;;;;;;;4.32;0.90;;;;;;;;;;4978752;28;20690;-66
2023/11/02 09:32:42;;;;;;;3.60;0.70;;;;;;;;;;4970644;28;20923;-66
2023/11/02 09:35:07;;;;;;;5.15;1.17;;;;;;;;;;4972500;28;20211;-66
2023/11/02 09:37:33;;;;;;;2.70;1.00;;;;;;;;;;4967905;28;20215;-65
2023/11/02 09:39:58;;;;;;;8.32;1.88;;;;;;;;;;4974677;28;21446;-66
2023/11/02 09:42:23;;;;;;;3.60;0.98;;;;;;;;;;4969890;28;20262;-66
2023/11/02 09:44:49;;;;;;;4.20;0.80;;;;;;;;;;4970508;28;20210;-66
2023/11/02 09:47:14;;;;;;;3.58;0.82;;;;;;;;;;4968160;28;20200;-66
2023/11/02 09:49:39;;;;;;;3.97;0.93;;;;;;;;;;4972507;28;20190;-67
2023/11/02 09:52:05;;;;;;;6.32;1.10;;;;;;;;;;4970521;28;20176;-66
2023/11/02 09:54:32;;;;;;;5.43;0.95;;;;;;;;;;4968454;28;20231;-67
2023/11/02 09:56:57;;;;;;;8.35;0.90;;;;;;;;;;4967701;28;20203;-66
2023/11/02 09:59:23;;;;;;;3.20;1.00;;;;;;;;;;4967276;28;20258;-66
2023/11/02 10:01:49;;;;;;;6.75;1.58;;;;;;;;;;4970013;28;20315;-66
2023/11/02 10:04:14;;;;;;;7.30;1.80;;;;;;;;;;4968992;28;20190;-66
2023/11/02 10:06:39;;;;;;;4.47;1.20;;;;;;;;;;4970146;28;20211;-67
2023/11/02 10:09:05;;;;;;;3.83;1.17;;;;;;;;;;4967156;28;20180;-67
2023/11/02 10:11:31;;;;;;;3.42;0.80;;;;;;;;;;4968507;28;21177;-67
2023/11/02 10:13:56;;;;;;;4.65;0.95;;;;;;;;;;4968838;28;20184;-67
2023/11/02 10:16:22;;;;;;;5.40;0.90;;;;;;;;;;4968298;28;20210;-66
2023/11/02 10:18:47;;;;;;;7.85;0.80;;;;;;;;;;4966395;28;20195;-66
2023/11/02 10:21:12;;;;;;;1.23;0.57;;;;;;;;;;4970346;28;20192;-66
2023/11/02 10:23:56;;;;;;;7.25;1.10;;;;;;;;;;4966787;28;20187;-66
2023/11/02 10:26:21;;;;;;;3.10;0.95;;;;;;;;;;4967209;28;20206;-66
2023/11/02 10:28:47;;;;;;;5.30;1.10;;;;;;;;;;4965913;28;20726;-66
2023/11/02 10:31:16;;;;;;;4.35;0.90;;;;;;;;;;4966930;28;20198;-65
2023/11/02 10:33:42;;;;;;;6.60;1.10;;;;;;;;;;4970684;28;20196;-66
2023/11/02 10:36:07;;;;;;;4.85;1.40;;;;;;;;;;4971104;28;20194;-65
2023/11/02 10:38:33;;;;;;;3.75;1.05;;;;;;;;;;4966109;28;20183;-65
2023/11/02 10:40:59;;;;;;;3.63;1.00;;;;;;;;;;4967272;28;20246;-65
2023/11/02 10:43:26;;;;;;;3.83;1.10;;;;;;;;;;4968600;28;20620;-65
2023/11/02 10:45:52;;;;;;;7.57;1.20;;;;;;;;;;4969283;28;20187;-65
2023/11/02 10:48:18;;;;;;;3.05;0.70;;;;;;;;;;4967064;28;20239;-65
2023/11/02 10:50:47;;;;;;;4.93;0.90;;;;;;;;;;4994339;23;20235;-64
2023/11/02 10:53:20;;;;;;;2.83;0.55;;;;;;;;;;4984452;28;20191;-64
2023/11/02 10:55:48;;;;;;;4.22;1.17;;;;;;;;;;4984136;28;20183;-64
2023/11/02 10:58:13;;;;;;;4.65;0.93;;;;;;;;;;5011174;28;20187;-61
2023/11/02 11:00:39;;;;;;;5.35;0.93;;;;;;;;;;5005549;28;20217;-62
2023/11/02 11:03:09;;;;;;;7.15;1.08;;;;;;;;;;4998254;28;20209;-62
2023/11/02 11:05:36;;;;;;;11.20;0.90;;;;;;;;;;4995817;28;20267;-63
2023/11/02 11:08:04;;;;;;;2.85;0.88;;;;;;;;;;4995637;28;20186;-63
2023/11/02 11:10:30;;;;;;;3.92;0.90;;;;;;;;;;4995890;28;20670;-63
2023/11/02 11:12:55;;;;;;;3.40;0.90;;;;;;;;;;4991753;28;20262;-64
2023/11/02 11:15:22;;;;;;;3.22;0.82;;;;;;;;;;4994707;28;20215;-63
2023/11/02 11:17:48;;;;;;;4.70;0.88;;;;;;;;;;4997111;28;20168;-64
2023/11/02 11:20:16;;;;;;;4.25;0.90;;;;;;;;;;4994145;28;20215;-64
2023/11/02 11:22:42;;;;;;;6.35;0.80;;;;;;;;;;4992903;28;20206;-63
2023/11/02 11:25:08;;;;;;;5.32;1.13;;;;;;;;;;4988909;28;20174;-64
2023/11/02 11:27:34;;;;;;;5.07;0.88;;;;;;;;;;4977652;28;20176;-63
2023/11/02 11:30:00;;;;;;;5.57;0.82;;;;;;;;;;4966910;28;20207;-64
2023/11/02 11:32:25;;;;;;;8.50;0.90;;;;;;;;;;4986196;28;20647;-63
2023/11/02 11:34:53;;;;;;;4.93;1.55;;;;;;;;;;4967664;28;20609;-63
2023/11/02 11:37:40;;;;;;;8.25;1.35;;;;;;;;;;4966817;28;20192;-63
2023/11/02 11:40:07;;;;;;;4.47;0.77;;;;;;;;;;4964615;28;20246;-63
2023/11/02 11:42:51;;;;;;;6.85;1.15;;;;;;;;;;4965620;28;20184;-63
2023/11/02 11:45:33;;;;;;;5.22;1.00;;;;;;;;;;4965294;28;20186;-63
2023/11/02 11:48:02;;;;;;;3.35;1.73;;;;;;;;;;4966302;28;20180;-63
2023/11/02 11:50:30;;;;;;;5.18;0.82;;;;;;;;;;4972627;28;20222;-63
2023/11/02 11:53:15;;;;;;;4.47;1.38;;;;;;;;;;4968690;28;20849;-64
2023/11/02 11:55:47;;;;;;;4.45;0.70;;;;;;;;;;4965930;28;20191;-64
2023/11/02 11:58:13;;;;;;;5.43;1.20;;;;;;;;;;4968756;28;20191;-63
2023/11/02 12:00:51;;;;;;;4.07;1.13;;;;;;;;;;4965519;28;20286;-64
2023/11/02 12:03:34;;;;;;;3.03;0.70;;;;;;;;;;4963940;28;20176;-63
2023/11/02 12:06:03;;;;;;;2.22;0.85;;;;;;;;;;4965251;28;20269;-64
2023/11/02 12:08:29;;;;;;;7.63;1.17;;;;;;;;;;4964956;28;20234;-63
2023/11/02 12:10:57;;;;;;;9.18;1.08;;;;;;;;;;4960083;28;20641;-63
2023/11/02 12:13:23;;;;;;;6.38;1.33;;;;;;;;;;4966098;28;20184;-64
2023/11/02 12:15:59;;;;;;;5.97;1.17;;;;;;;;;;4965671;28;20941;-63
2023/11/02 12:18:25;;;;;;;3.95;1.30;;;;;;;;;;4964490;28;20186;-65
2023/11/02 12:20:50;;;;;;;4.20;1.02;;;;;;;;;;4969510;28;20326;-63
2023/11/02 12:23:15;;;;;;;8.73;1.23;;;;;;;;;;4966103;28;20187;-64
2023/11/02 12:25:41;;;;;;;3.97;0.82;;;;;;;;;;4965139;28;20950;-63
2023/11/02 12:28:12;;;;;;;3.42;0.90;;;;;;;;;;4964087;28;20187;-63
2023/11/02 12:30:41;;;;;;;6.00;0.95;;;;;;;;;;4964171;28;20303;-62
2023/11/02 12:33:06;;;;;;;6.45;1.20;;;;;;;;;;4964424;28;20197;-63
2023/11/02 12:35:31;;;;;;;3.80;0.95;;;;;;;;;;4965727;28;20595;-63
2023/11/02 12:38:00;;;;;;;3.05;0.80;;;;;;;;;;4963526;28;20194;-62
2023/11/02 12:40:26;;;;;;;4.20;1.15;;;;;;;;;;4976805;28;20212;-63
2023/11/02 12:42:51;;;;;;;5.05;1.10;;;;;;;;;;4961830;28;20184;-63
2023/11/02 12:45:23;;;;;;;6.10;1.05;;;;;;;;;;4959546;28;20506;-62
2023/11/02 12:47:48;;;;;;;5.85;0.82;;;;;;;;;;4957413;28;20183;-62
2023/11/02 12:50:33;;;;;;;1.80;0.98;;;;;;;;;;4972072;28;20222;-64
2023/11/02 12:52:58;;;;;;;7.57;1.40;;;;;;;;;;4963955;28;20265;-63
2023/11/02 12:55:27;;;;;;;5.00;1.17;;;;;;;;;;4964700;28;20183;-64
2023/11/02 12:57:52;;;;;;;4.28;0.98;;;;;;;;;;4980906;28;20180;-64
2023/11/02 13:00:18;;;;;;;9.73;1.20;;;;;;;;;;4991412;28;20732;-63
2023/11/02 13:02:44;;;;;;;5.90;0.80;;;;;;;;;;4988004;28;20554;-64
2023/11/02 13:05:09;;;;;;;3.55;0.90;;;;;;;;;;4992734;28;20267;-64
2023/11/02 13:07:36;;;;;;;9.13;1.35;;;;;;;;;;4991956;28;20269;-63
2023/11/02 13:10:13;;;;;;;6.60;0.90;;;;;;;;;;4995787;28;20196;-64
2023/11/02 13:12:39;;;;;;;2.20;0.60;;;;;;;;;;4991141;28;20176;-63
2023/11/02 13:15:11;;;;;;;4.88;1.23;;;;;;;;;;4989005;28;20203;-63
2023/11/02 13:17:40;;;;;;;5.45;1.00;;;;;;;;;;4988604;28;20258;-63
2023/11/02 13:20:06;;;;;;;6.28;0.98;;;;;;;;;;4992645;28;20214;-66
2023/11/02 13:22:31;;;;;;;4.25;0.80;;;;;;;;;;4991911;28;20362;-63
2023/11/02 13:24:56;;;;;;;5.05;1.38;;;;;;;;;;4992996;28;20679;-63
2023/11/02 13:27:22;;;;;;;5.88;2.20;;;;;;;;;;4982491;28;20999;-63
2023/11/02 13:29:47;;;;;;;5.60;1.23;;;;;;;;;;4969841;28;20216;-63
2023/11/02 13:32:14;;;;;;;5.93;0.90;;;;;;;;;;4970125;28;20282;-62
2023/11/02 13:34:41;;;;;;;5.40;1.88;;;;;;;;;;4982473;28;20184;-63
2023/11/02 13:37:06;;;;;;;2.33;0.63;;;;;;;;;;4971379;28;20179;-63
2023/11/02 13:39:32;;;;;;;7.25;1.05;;;;;;;;;;4973399;28;20600;-63
2023/11/02 13:41:57;;;;;;;4.22;1.10;;;;;;;;;;4973868;28;20268;-64
2023/11/02 13:44:22;;;;;;;4.20;0.95;;;;;;;;;;4972579;28;20191;-63
2023/11/02 13:46:47;;;;;;;3.60;0.90;;;;;;;;;;4971692;28;20207;-63
2023/11/02 13:49:12;;;;;;;2.85;0.60;;;;;;;;;;4975664;28;20194;-63
2023/11/02 13:51:38;;;;;;;1.38;0.30;;;;;;;;;;4974845;28;20201;-63
2023/11/02 13:54:03;;;;;;;4.28;0.50;;;;;;;;;;4971228;28;20592;-63
2023/11/02 13:56:29;;;;;;;5.22;0.90;;;;;;;;;;4972996;28;20207;-63
2023/11/02 13:58:54;;;;;;;5.43;0.90;;;;;;;;;;4971535;28;20187;-62
2023/11/02 14:01:19;;;;;;;2.70;0.40;;;;;;;;;;4970082;28;20211;-63
2023/11/02 14:03:45;;;;;;;3.92;0.65;;;;;;;;;;4971542;28;20219;-63
2023/11/02 14:06:12;;;;;;;7.63;0.90;;;;;;;;;;4973018;28;20239;-63
2023/11/02 14:08:37;;;;;;;4.50;0.70;;;;;;;;;;4970965;28;20180;-63
2023/11/02 14:11:05;;;;;;;4.55;0.60;;;;;;;;;;4971845;28;20234;-63
2023/11/02 14:13:31;;;;;;;3.38;0.70;;;;;;;;;;4970321;28;20188;-64
2023/11/02 14:15:56;;;;;;;3.67;0.93;;;;;;;;;;4973156;28;20182;-63
2023/11/02 14:18:22;;;;;;;1.23;0.80;;;;;;;;;;4970398;28;20607;-63
2023/11/02 14:20:47;;;;;;;2.10;0.57;;;;;;;;;;4972930;28;20241;-63
2023/11/02 14:23:16;;;;;;;2.13;0.60;;;;;;;;;;4969380;28;20187;-63
2023/11/02 14:25:42;;;;;;;1.65;0.82;;;;;;;;;;4969180;28;20274;-64
2023/11/02 14:28:07;;;;;;;2.45;0.60;;;;;;;;;;4972229;28;20179;-63
2023/11/02 14:30:32;;;;;;;4.13;0.70;;;;;;;;;;4970758;28;20858;-64
2023/11/02 14:32:57;;;;;;;2.78;0.52;;;;;;;;;;4972918;28;20554;-64
2023/11/02 14:35:24;;;;;;;7.90;0.70;;;;;;;;;;4976682;28;20183;-63
2023/11/02 14:37:50;;;;;;;1.90;0.68;;;;;;;;;;4970802;28;20677;-64
2023/11/02 14:40:16;;;;;;;6.72;1.30;;;;;;;;;;4972556;28;20938;-63
2023/11/02 14:42:41;;;;;;;4.93;0.40;;;;;;;;;;4970225;28;20418;-63
2023/11/02 14:45:07;;;;;;;6.20;0.60;;;;;;;;;;4971252;28;20180;-64
2023/11/02 14:47:32;;;;;;;5.93;0.80;;;;;;;;;;4969860;28;20248;-63
2023/11/02 14:49:58;;;;;;;9.32;0.93;;;;;;;;;;4975471;28;20215;-64
2023/11/02 14:52:23;;;;;;;2.30;0.75;;;;;;;;;;4971455;28;20188;-63
2023/11/02 14:54:49;;;;;;;6.13;0.70;;;;;;;;;;4970609;28;20187;-64
2023/11/02 14:57:14;;;;;;;0.65;0.20;;;;;;;;;;4988528;28;20176;-63
2023/11/02 14:59:39;;;;;;;2.60;0.77;;;;;;;;;;4995456;28;20211;-64
2023/11/02 15:02:07;;;;;;;3.07;0.73;;;;;;;;;;4988281;28;20172;-64
2023/11/02 15:04:32;;;;;;;2.50;0.60;;;;;;;;;;4995251;28;20588;-64
2023/11/02 15:06:58;;;;;;;2.10;0.90;;;;;;;;;;4991441;28;20202;-64
2023/11/02 15:09:23;;;;;;;3.90;0.73;;;;;;;;;;4994522;28;20204;-64
2023/11/02 15:11:48;;;;;;;0.77;0.30;;;;;;;;;;4995057;28;20758;-64
2023/11/02 15:14:14;;;;;;;2.53;0.40;;;;;;;;;;5000376;28;20200;-64
2023/11/02 15:16:42;;;;;;;3.53;0.50;;;;;;;;;;4989547;28;20187;-65
2023/11/02 15:19:07;;;;;;;0.82;0.30;;;;;;;;;;4998258;28;20287;-65
2023/11/02 15:21:33;;;;;;;2.28;0.90;;;;;;;;;;4990006;28;20267;-63
2023/11/02 15:23:58;;;;;;;1.37;0.60;;;;;;;;;;4992224;28;20172;-64
2023/11/02 15:26:23;;;;;;;2.70;0.60;;;;;;;;;;4980370;28;20258;-64
2023/11/02 15:28:49;;;;;;;3.70;0.65;;;;;;;;;;4969984;28;20171;-64